Time;durP1;ratioP1;P1;durP2;ratioP2;P2;SDS_P1;SDS_P2;PMS_P1;PMS_P2;Temp;Humidity;BMP_temperature;BMP_pressure;BME280_temperature;BME280_humidity;BME280_pressure;Samples;Min_cycle;Max_cycle;Signal;HPM_P1;HPM_P2
2022/04/10 00:01:21;;;;;;;;;;;9.60;27.80;;;;;;6128137;23;19921;-81
2022/04/10 00:03:48;;;;;;;;;;;9.50;28.30;;;;;;6155398;23;19917;-78
2022/04/10 00:06:15;;;;;;;;;;;9.50;28.00;;;;;;6154021;23;19916;-79
2022/04/10 00:08:42;;;;;;;;;;;9.40;28.10;;;;;;6128333;23;19916;-79
2022/04/10 00:11:10;;;;;;;;;;;9.40;28.30;;;;;;6128254;23;20257;-81
2022/04/10 00:13:38;;;;;;;;;;;9.40;27.80;;;;;;6130010;23;19916;-79
2022/04/10 00:16:04;;;;;;;;;;;9.50;28.30;;;;;;6128227;23;19971;-79
2022/04/10 00:18:31;;;;;;;;;;;9.50;27.50;;;;;;6155638;23;19917;-82
2022/04/10 00:20:58;;;;;;;;;;;9.50;27.90;;;;;;6129739;23;19967;-79
2022/04/10 00:23:25;;;;;;;;;;;9.50;28.10;;;;;;6154406;23;19916;-78
2022/04/10 00:25:52;;;;;;;;;;;9.50;28.00;;;;;;6129480;23;19920;-79
2022/04/10 00:28:19;;;;;;;;;;;9.50;28.10;;;;;;6129091;23;20029;-81
2022/04/10 00:30:45;;;;;;;;;;;9.50;28.10;;;;;;6130506;23;20234;-81
2022/04/10 00:33:13;;;;;;;;;;;9.50;27.80;;;;;;6129048;23;19991;-79
2022/04/10 00:35:40;;;;;;;;;;;9.50;28.10;;;;;;6128358;23;19921;-79
2022/04/10 00:38:07;;;;;;;;;;;9.50;28.20;;;;;;6129552;23;19923;-81
2022/04/10 00:40:33;;;;;;;;;;;9.40;28.10;;;;;;6129806;23;19921;-79
2022/04/10 00:43:00;;;;;;;;;;;9.30;29.30;;;;;;6154940;23;19967;-79
2022/04/10 00:45:27;;;;;;;;;;;9.00;30.80;;;;;;6128142;23;20463;-81
2022/04/10 00:47:54;;;;;;;;;;;8.70;33.20;;;;;;6128745;23;19917;-79
2022/04/10 00:50:21;;;;;;;;;;;8.10;36.90;;;;;;6128239;23;20024;-81
2022/04/10 00:52:49;;;;;;;;;;;8.00;38.30;;;;;;6128695;23;19967;-79
2022/04/10 00:55:16;;;;;;;;;;;7.70;37.40;;;;;;6127738;23;19924;-80
2022/04/10 00:57:44;;;;;;;;;;;7.50;37.80;;;;;;6128716;23;19948;-79
2022/04/10 01:00:11;;;;;;;;;;;7.30;39.00;;;;;;6152933;23;19975;-79
2022/04/10 01:02:39;;;;;;;;;;;7.20;44.10;;;;;;6154536;23;19916;-79
2022/04/10 01:05:06;;;;;;;;;;;7.10;46.20;;;;;;6152999;23;19920;-79
2022/04/10 01:07:33;;;;;;;;;;;7.10;50.10;;;;;;6128845;23;20293;-79
2022/04/10 01:10:01;;;;;;;;;;;6.90;56.60;;;;;;6128933;23;19920;-81
2022/04/10 01:12:28;;;;;;;;;;;6.80;59.60;;;;;;6128006;23;19967;-79
2022/04/10 01:14:55;;;;;;;;;;;6.60;61.40;;;;;;6129238;23;19920;-81
2022/04/10 01:17:22;;;;;;;;;;;6.50;62.60;;;;;;6129125;23;19987;-81
2022/04/10 01:19:50;;;;;;;;;;;6.50;63.20;;;;;;6129683;23;20329;-81
2022/04/10 01:22:26;;;;;;;;;;;6.40;65.00;;;;;;6127561;23;19917;-78
2022/04/10 01:24:52;;;;;;;;;;;6.40;64.90;;;;;;6128986;23;19967;-80
2022/04/10 01:27:19;;;;;;;;;;;6.20;67.30;;;;;;6125508;23;20387;-81
2022/04/10 01:29:46;;;;;;;;;;;6.20;67.40;;;;;;6128479;23;19917;-81
2022/04/10 01:32:13;;;;;;;;;;;6.10;67.90;;;;;;6127460;23;19917;-80
2022/04/10 01:34:40;;;;;;;;;;;6.00;68.40;;;;;;6155001;23;19916;-78
2022/04/10 01:37:07;;;;;;;;;;;6.00;69.30;;;;;;6152863;23;19963;-81
2022/04/10 01:39:34;;;;;;;;;;;6.00;69.50;;;;;;6128086;23;20045;-81
2022/04/10 01:42:01;;;;;;;;;;;5.90;70.00;;;;;;6154465;23;19924;-80
2022/04/10 01:44:28;;;;;;;;;;;5.90;71.70;;;;;;6128250;23;19971;-78
2022/04/10 01:46:54;;;;;;;;;;;5.90;71.00;;;;;;6128984;23;19920;-79
2022/04/10 01:49:21;;;;;;;;;;;5.90;69.30;;;;;;6128208;23;19924;-79
2022/04/10 01:51:48;;;;;;;;;;;5.90;68.50;;;;;;6154889;23;20266;-79
2022/04/10 01:54:14;;;;;;;;;;;5.90;67.20;;;;;;6127488;23;19963;-79
2022/04/10 01:56:42;;;;;;;;;;;5.90;66.20;;;;;;6127802;23;20286;-79
2022/04/10 01:59:09;;;;;;;;;;;5.90;68.70;;;;;;6127778;23;19917;-80
2022/04/10 02:01:36;;;;;;;;;;;5.90;67.00;;;;;;6129185;23;19921;-79
2022/04/10 02:04:03;;;;;;;;;;;5.80;67.30;;;;;;6128996;23;19939;-81
2022/04/10 02:06:29;;;;;;;;;;;5.70;66.30;;;;;;6128802;23;19971;-80
2022/04/10 02:08:56;;;;;;;;;;;5.70;65.70;;;;;;6129974;23;19916;-81
2022/04/10 02:11:23;;;;;;;;;;;5.70;67.20;;;;;;6128622;23;20343;-78
2022/04/10 02:13:50;;;;;;;;;;;5.60;67.30;;;;;;6131076;23;19921;-79
2022/04/10 02:16:17;;;;;;;;;;;5.60;70.30;;;;;;6154715;23;19983;-79
2022/04/10 02:18:46;;;;;;;;;;;5.30;72.80;;;;;;6130371;23;20330;-80
2022/04/10 02:21:13;;;;;;;;;;;5.00;73.80;;;;;;6129274;23;19917;-78
2022/04/10 02:23:40;;;;;;;;;;;5.00;72.60;;;;;;6129974;23;19947;-81
2022/04/10 02:26:09;;;;;;;;;;;5.00;71.70;;;;;;6130603;23;19917;-80
2022/04/10 02:28:36;;;;;;;;;;;4.90;73.90;;;;;;6154596;23;19924;-80
2022/04/10 02:31:02;;;;;;;;;;;4.80;76.20;;;;;;6130473;23;19916;-79
2022/04/10 02:33:29;;;;;;;;;;;4.80;76.00;;;;;;6129447;23;19978;-80
2022/04/10 02:35:56;;;;;;;;;;;4.90;73.70;;;;;;6130025;23;19920;-81
2022/04/10 02:38:23;;;;;;;;;;;4.90;74.60;;;;;;6129473;23;19917;-80
2022/04/10 02:40:50;;;;;;;;;;;4.90;75.10;;;;;;6130171;23;19924;-79
2022/04/10 02:43:17;;;;;;;;;;;4.90;72.70;;;;;;6154666;23;20303;-79
2022/04/10 02:45:44;;;;;;;;;;;5.00;71.80;;;;;;6129929;23;19971;-78
2022/04/10 02:48:11;;;;;;;;;;;5.00;71.80;;;;;;6131174;23;19920;-79
2022/04/10 02:50:38;;;;;;;;;;;5.00;73.30;;;;;;6155791;23;19920;-81
2022/04/10 02:53:07;;;;;;;;;;;5.00;71.20;;;;;;6131121;23;19979;-81
2022/04/10 02:55:34;;;;;;;;;;;5.00;71.50;;;;;;6129780;23;19917;-80
2022/04/10 02:58:01;;;;;;;;;;;5.00;71.20;;;;;;6156835;23;19921;-79
2022/04/10 03:00:28;;;;;;;;;;;4.90;71.60;;;;;;6129873;23;19917;-81
2022/04/10 03:02:54;;;;;;;;;;;4.50;70.50;;;;;;6157541;23;20301;-79
2022/04/10 03:05:21;;;;;;;;;;;4.30;71.00;;;;;;6130454;23;19917;-79
2022/04/10 03:07:53;;;;;;;;;;;4.20;72.30;;;;;;6132501;23;19924;-79
2022/04/10 03:10:20;;;;;;;;;;;4.20;70.80;;;;;;6129972;23;19959;-79
2022/04/10 03:12:47;;;;;;;;;;;4.20;70.20;;;;;;6156686;23;19940;-79
2022/04/10 03:15:14;;;;;;;;;;;4.10;70.10;;;;;;6156777;23;19917;-79
2022/04/10 03:17:41;;;;;;;;;;;3.90;72.70;;;;;;6131741;23;19920;-79
2022/04/10 03:20:11;;;;;;;;;;;3.90;74.10;;;;;;6156877;23;19964;-81
2022/04/10 03:22:38;;;;;;;;;;;3.90;73.40;;;;;;6155818;23;20003;-78
2022/04/10 03:25:06;;;;;;;;;;;3.90;71.70;;;;;;6157294;23;20416;-79
2022/04/10 03:27:32;;;;;;;;;;;4.00;71.00;;;;;;6129304;23;19921;-78
2022/04/10 03:29:59;;;;;;;;;;;4.00;72.20;;;;;;6130798;23;19967;-80
2022/04/10 03:32:26;;;;;;;;;;;3.70;73.00;;;;;;6129506;23;19924;-79
2022/04/10 03:34:52;;;;;;;;;;;3.50;73.10;;;;;;6131116;23;19916;-79
2022/04/10 03:37:19;;;;;;;;;;;3.50;73.80;;;;;;6132082;23;19916;-81
2022/04/10 03:39:46;;;;;;;;;;;3.40;74.60;;;;;;6130782;23;19986;-80
2022/04/10 03:42:13;;;;;;;;;;;3.40;74.10;;;;;;6130269;23;20297;-81
2022/04/10 03:44:39;;;;;;;;;;;3.40;74.50;;;;;;6130730;23;19917;-78
2022/04/10 03:47:06;;;;;;;;;;;3.30;74.50;;;;;;6130589;23;19920;-81
2022/04/10 03:49:33;;;;;;;;;;;3.30;73.10;;;;;;6128982;23;19971;-81
2022/04/10 03:52:00;;;;;;;;;;;3.40;73.60;;;;;;6156392;23;19947;-81
2022/04/10 03:54:27;;;;;;;;;;;3.30;73.60;;;;;;6131732;23;20297;-80
2022/04/10 03:56:53;;;;;;;;;;;3.30;71.80;;;;;;6131509;23;19917;-80
2022/04/10 03:59:20;;;;;;;;;;;3.30;75.10;;;;;;6129730;23;19924;-77
2022/04/10 04:01:47;;;;;;;;;;;3.30;74.40;;;;;;6129489;23;19916;-77
2022/04/10 04:04:14;;;;;;;;;;;3.20;75.20;;;;;;6129132;23;19995;-77
2022/04/10 04:06:41;;;;;;;;;;;3.20;74.50;;;;;;6129194;23;19924;-80
2022/04/10 04:09:07;;;;;;;;;;;3.20;74.20;;;;;;6129783;23;19948;-80
2022/04/10 04:11:34;;;;;;;;;;;3.20;75.00;;;;;;6129012;23;19971;-80
2022/04/10 04:14:01;;;;;;;;;;;3.20;74.50;;;;;;6130731;23;20252;-77
2022/04/10 04:16:28;;;;;;;;;;;3.20;74.30;;;;;;6128751;23;19917;-78
2022/04/10 04:18:54;;;;;;;;;;;3.10;72.60;;;;;;6128974;23;19917;-77
2022/04/10 04:21:21;;;;;;;;;;;3.10;74.80;;;;;;6128253;23;20329;-77
2022/04/10 04:23:48;;;;;;;;;;;2.90;74.50;;;;;;6129375;23;19917;-80
2022/04/10 04:26:15;;;;;;;;;;;3.00;74.10;;;;;;6128751;23;19916;-80
2022/04/10 04:28:42;;;;;;;;;;;3.00;75.00;;;;;;6103014;23;19917;-77
2022/04/10 04:31:08;;;;;;;;;;;3.00;74.60;;;;;;6128908;23;19923;-80
2022/04/10 04:33:35;;;;;;;;;;;3.10;74.10;;;;;;6129291;23;19927;-80
2022/04/10 04:36:02;;;;;;;;;;;3.10;76.80;;;;;;6128700;23;19920;-77
2022/04/10 04:38:29;;;;;;;;;;;3.00;77.00;;;;;;6128964;23;19971;-77
2022/04/10 04:40:55;;;;;;;;;;;3.10;76.00;;;;;;6129151;23;19970;-78
2022/04/10 04:43:23;;;;;;;;;;;3.10;78.30;;;;;;6153496;23;19955;-78
2022/04/10 04:45:50;;;;;;;;;;;3.00;79.10;;;;;;6129581;23;19924;-80
2022/04/10 04:48:16;;;;;;;;;;;3.00;76.80;;;;;;6128951;23;19921;-77
2022/04/10 04:50:44;;;;;;;;;;;2.70;74.80;;;;;;6153567;23;19924;-77
2022/04/10 04:53:10;;;;;;;;;;;2.20;80.60;;;;;;6154695;23;19927;-78
2022/04/10 04:55:37;;;;;;;;;;;2.30;78.70;;;;;;6157147;23;19967;-78
2022/04/10 04:58:04;;;;;;;;;;;2.30;79.40;;;;;;6131048;23;19920;-80
2022/04/10 05:00:31;;;;;;;;;;;2.10;83.40;;;;;;6132190;23;19979;-78
2022/04/10 05:02:57;;;;;;;;;;;2.00;84.10;;;;;;6128580;23;19917;-77
2022/04/10 05:05:25;;;;;;;;;;;2.00;85.80;;;;;;6128586;23;19920;-77
2022/04/10 05:07:52;;;;;;;;;;;2.10;85.70;;;;;;6157017;23;19917;-78
2022/04/10 05:10:18;;;;;;;;;;;2.20;87.20;;;;;;6131127;23;19916;-78
2022/04/10 05:12:45;;;;;;;;;;;2.40;86.70;;;;;;6129633;23;19917;-80
2022/04/10 05:15:12;;;;;;;;;;;2.50;85.60;;;;;;6128007;23;19924;-80
2022/04/10 05:17:39;;;;;;;;;;;2.60;83.60;;;;;;6127613;23;19916;-81
2022/04/10 05:20:07;;;;;;;;;;;2.70;82.30;;;;;;6131228;23;19916;-80
2022/04/10 05:22:34;;;;;;;;;;;2.70;84.40;;;;;;6129642;23;19928;-81
2022/04/10 05:25:01;;;;;;;;;;;2.80;87.10;;;;;;6132028;23;19979;-78
2022/04/10 05:27:28;;;;;;;;;;;2.90;85.60;;;;;;6128719;23;19967;-78
2022/04/10 05:29:55;;;;;;;;;;;2.90;86.00;;;;;;6129194;23;19916;-80
2022/04/10 05:32:21;;;;;;;;;;;3.00;84.50;;;;;;6130178;23;19979;-78
2022/04/10 05:34:48;;;;;;;;;;;3.10;83.00;;;;;;6157926;23;19963;-79
2022/04/10 05:37:17;;;;;;;;;;;3.20;83.00;;;;;;6130944;23;19983;-77
2022/04/10 05:39:44;;;;;;;;;;;3.20;82.20;;;;;;6130194;23;19928;-77
2022/04/10 05:42:11;;;;;;;;;;;3.30;81.30;;;;;;6128106;23;19927;-81
2022/04/10 05:44:37;;;;;;;;;;;3.30;81.60;;;;;;6127518;23;20320;-81
2022/04/10 05:47:04;;;;;;;;;;;3.30;80.30;;;;;;6127996;23;20235;-77
2022/04/10 05:49:31;;;;;;;;;;;3.30;79.90;;;;;;6131073;23;19924;-81
2022/04/10 05:51:58;;;;;;;;;;;3.20;80.10;;;;;;6129797;23;19916;-80
2022/04/10 05:54:25;;;;;;;;;;;3.10;81.70;;;;;;6130966;23;19917;-77
2022/04/10 05:56:52;;;;;;;;;;;3.10;80.80;;;;;;6153995;23;20770;-81
2022/04/10 05:59:18;;;;;;;;;;;3.20;80.90;;;;;;6129673;23;20349;-80
2022/04/10 06:01:45;;;;;;;;;;;3.20;80.60;;;;;;6128680;23;19967;-78
2022/04/10 06:04:12;;;;;;;;;;;3.20;80.80;;;;;;6153285;23;19951;-78
2022/04/10 06:06:39;;;;;;;;;;;3.30;80.30;;;;;;6152058;23;19916;-81
2022/04/10 06:09:05;;;;;;;;;;;3.20;81.90;;;;;;6131871;23;19920;-78
2022/04/10 06:11:32;;;;;;;;;;;3.30;80.60;;;;;;6126819;23;19927;-78
2022/04/10 06:13:59;;;;;;;;;;;3.40;80.80;;;;;;6157374;23;19916;-79
2022/04/10 06:16:26;;;;;;;;;;;3.40;81.30;;;;;;6133289;23;19967;-80
2022/04/10 06:18:53;;;;;;;;;;;3.50;80.90;;;;;;6126170;23;19921;-77
2022/04/10 06:21:23;;;;;;;;;;;3.60;81.00;;;;;;6130159;23;20426;-77
2022/04/10 06:23:49;;;;;;;;;;;3.70;82.40;;;;;;6127254;23;20386;-81
2022/04/10 06:26:16;;;;;;;;;;;3.80;82.00;;;;;;6130348;23;20222;-78
2022/04/10 06:28:43;;;;;;;;;;;3.80;80.50;;;;;;6155086;23;19917;-81
2022/04/10 06:31:09;;;;;;;;;;;3.80;79.30;;;;;;6128125;23;19917;-81
2022/04/10 06:33:36;;;;;;;;;;;3.90;80.20;;;;;;6126678;23;20257;-77
2022/04/10 06:36:03;;;;;;;;;;;4.00;80.30;;;;;;6127461;23;19952;-79
2022/04/10 06:38:30;;;;;;;;;;;4.10;79.50;;;;;;6131368;23;19917;-79
2022/04/10 06:40:57;;;;;;;;;;;4.20;79.50;;;;;;6153236;23;19920;-77
2022/04/10 06:43:24;;;;;;;;;;;4.20;79.30;;;;;;6131198;23;19947;-81
2022/04/10 06:45:51;;;;;;;;;;;4.30;80.80;;;;;;6127756;23;19928;-77
2022/04/10 06:48:18;;;;;;;;;;;4.40;80.90;;;;;;6154671;23;19917;-81
2022/04/10 06:50:45;;;;;;;;;;;4.50;80.20;;;;;;6131455;23;19967;-77
2022/04/10 06:53:12;;;;;;;;;;;4.60;79.50;;;;;;6130105;23;19917;-77
2022/04/10 06:55:39;;;;;;;;;;;4.70;80.20;;;;;;6132185;23;20338;-81
2022/04/10 06:58:06;;;;;;;;;;;4.80;79.60;;;;;;6130433;23;20333;-77
2022/04/10 07:00:33;;;;;;;;;;;5.00;79.90;;;;;;6154283;23;19920;-78
2022/04/10 07:03:01;;;;;;;;;;;5.10;79.00;;;;;;6133266;23;19940;-80
2022/04/10 07:05:28;;;;;;;;;;;5.20;77.60;;;;;;6131080;23;19916;-77
2022/04/10 07:07:55;;;;;;;;;;;5.30;77.10;;;;;;6132684;23;19917;-81
2022/04/10 07:10:22;;;;;;;;;;;5.60;77.00;;;;;;6130032;23;19917;-80
2022/04/10 07:12:50;;;;;;;;;;;5.70;76.00;;;;;;6129074;23;19916;-77
2022/04/10 07:15:20;;;;;;;;;;;5.80;75.70;;;;;;6158190;23;19916;-77
2022/04/10 07:17:55;;;;;;;;;;;6.20;74.10;;;;;;6155982;23;20351;-77
2022/04/10 07:20:22;;;;;;;;;;;6.30;73.30;;;;;;6129674;23;19947;-77
2022/04/10 07:25:33;;;;;;;;;;;7.00;67.20;;;;;;6154917;23;20283;-77
2022/04/10 07:28:00;;;;;;;;;;;7.50;62.90;;;;;;6154061;23;19947;-81
2022/04/10 07:30:27;;;;;;;;;;;8.00;57.40;;;;;;6129666;23;19948;-80
2022/04/10 07:32:55;;;;;;;;;;;8.20;57.10;;;;;;6128732;23;20329;-77
2022/04/10 07:35:22;;;;;;;;;;;8.30;56.40;;;;;;6130225;23;19967;-81
2022/04/10 07:37:49;;;;;;;;;;;8.30;54.30;;;;;;6105788;23;19916;-77
2022/04/10 07:40:16;;;;;;;;;;;8.60;53.70;;;;;;6131297;23;19979;-77
2022/04/10 07:42:43;;;;;;;;;;;8.70;52.90;;;;;;6129098;23;19916;-77
2022/04/10 07:47:25;;;;;;;;;;;9.00;51.40;;;;;;6129785;23;19924;-77
2022/04/10 07:47:58;;;;;;;;;;;9.20;47.20;;;;;;6155559;23;20376;-80
2022/04/10 07:50:25;;;;;;;;;;;9.50;46.00;;;;;;6129917;23;20574;-77
2022/04/10 07:52:52;;;;;;;;;;;9.60;44.10;;;;;;6128402;23;19920;-77
2022/04/10 07:55:19;;;;;;;;;;;9.80;44.70;;;;;;6155992;23;19917;-80
2022/04/10 07:57:46;;;;;;;;;;;10.00;44.60;;;;;;6155344;23;19920;-79
2022/04/10 08:00:14;;;;;;;;;;;10.20;44.40;;;;;;6130367;23;19923;-80
2022/04/10 08:02:44;;;;;;;;;;;10.40;43.10;;;;;;6130249;23;19920;-79
2022/04/10 08:05:11;;;;;;;;;;;10.70;40.00;;;;;;6155246;23;19927;-81
2022/04/10 08:07:37;;;;;;;;;;;11.00;38.40;;;;;;6107207;23;19917;-80
2022/04/10 08:10:04;;;;;;;;;;;11.10;34.70;;;;;;6129533;23;19917;-80
2022/04/10 08:12:31;;;;;;;;;;;11.30;34.80;;;;;;6128206;23;19920;-79
2022/04/10 08:14:58;;;;;;;;;;;11.50;33.40;;;;;;6129686;23;19940;-79
2022/04/10 08:17:25;;;;;;;;;;;11.50;30.80;;;;;;6133296;23;19916;-80
2022/04/10 08:19:51;;;;;;;;;;;11.60;32.40;;;;;;6128307;23;20251;-80
2022/04/10 08:22:25;;;;;;;;;;;11.80;32.50;;;;;;6129787;23;19917;-82
2022/04/10 08:24:52;;;;;;;;;;;11.90;31.50;;;;;;6134109;23;19916;-79
2022/04/10 08:27:19;;;;;;;;;;;12.00;31.90;;;;;;6137259;23;19944;-79
2022/04/10 08:29:52;;;;;;;;;;;12.20;31.40;;;;;;6133582;23;19923;-79
2022/04/10 08:32:18;;;;;;;;;;;12.40;32.90;;;;;;6137643;23;19987;-80
2022/04/10 08:34:45;;;;;;;;;;;12.80;34.10;;;;;;6137469;23;19940;-79
2022/04/10 08:37:12;;;;;;;;;;;13.00;32.10;;;;;;6128583;23;20342;-80
2022/04/10 08:39:39;;;;;;;;;;;13.20;30.50;;;;;;6132525;23;19920;-79
2022/04/10 08:42:06;;;;;;;;;;;13.10;30.10;;;;;;6131176;23;19920;-81
2022/04/10 08:44:35;;;;;;;;;;;13.20;28.10;;;;;;6130364;23;19916;-79
2022/04/10 08:47:02;;;;;;;;;;;13.10;27.10;;;;;;6133511;23;20400;-80
2022/04/10 08:49:29;;;;;;;;;;;13.20;28.20;;;;;;6132119;23;19921;-79
2022/04/10 08:51:57;;;;;;;;;;;13.10;28.10;;;;;;6129792;23;20305;-80
2022/04/10 08:54:24;;;;;;;;;;;13.10;29.60;;;;;;6130162;23;19964;-80
2022/04/10 08:56:51;;;;;;;;;;;13.50;29.30;;;;;;6127843;23;19924;-80
2022/04/10 08:59:18;;;;;;;;;;;13.70;29.60;;;;;;6140695;23;19916;-79
2022/04/10 09:01:46;;;;;;;;;;;13.80;28.40;;;;;;6133972;23;20390;-80
2022/04/10 09:04:13;;;;;;;;;;;14.00;27.40;;;;;;6137713;23;19923;-81
2022/04/10 09:06:40;;;;;;;;;;;13.90;27.90;;;;;;6136817;23;19992;-78
2022/04/10 09:09:16;;;;;;;;;;;14.20;29.00;;;;;;6133179;23;19943;-78
2022/04/10 09:11:50;;;;;;;;;;;14.50;30.40;;;;;;6133494;23;19920;-80
2022/04/10 09:14:21;;;;;;;;;;;14.70;27.70;;;;;;6137531;23;19947;-80
2022/04/10 09:17:08;;;;;;;;;;;14.80;28.50;;;;;;6158718;23;20302;-80
2022/04/10 09:19:36;;;;;;;;;;;14.80;28.30;;;;;;6136128;23;20330;-79
2022/04/10 09:22:26;;;;;;;;;;;14.90;27.90;;;;;;6132852;23;19988;-79
2022/04/10 09:25:05;;;;;;;;;;;14.80;27.70;;;;;;6147598;23;19983;-80
2022/04/10 09:27:32;;;;;;;;;;;14.90;28.20;;;;;;6135096;23;19939;-79
2022/04/10 09:30:00;;;;;;;;;;;14.60;28.20;;;;;;6128318;23;19917;-81
2022/04/10 09:32:36;;;;;;;;;;;14.30;28.60;;;;;;6137300;23;19967;-80
2022/04/10 09:35:03;;;;;;;;;;;14.30;28.70;;;;;;6131443;23;19917;-80
2022/04/10 09:37:52;;;;;;;;;;;14.50;28.30;;;;;;6108572;23;19922;-79
2022/04/10 09:40:29;;;;;;;;;;;14.40;28.00;;;;;;6132408;23;19916;-81
2022/04/10 09:42:59;;;;;;;;;;;14.20;29.60;;;;;;6141732;23;19928;-80
2022/04/10 09:45:40;;;;;;;;;;;14.30;28.10;;;;;;6131588;23;19916;-81
2022/04/10 09:48:19;;;;;;;;;;;14.30;28.60;;;;;;6130827;23;19995;-79
2022/04/10 09:50:47;;;;;;;;;;;14.20;28.20;;;;;;6129984;23;19923;-80
2022/04/10 09:53:14;;;;;;;;;;;14.60;29.20;;;;;;6157416;23;19948;-79
2022/04/10 09:55:42;;;;;;;;;;;14.70;28.10;;;;;;6132363;23;19982;-81
2022/04/10 09:58:10;;;;;;;;;;;14.50;27.20;;;;;;6129617;23;20375;-80
2022/04/10 10:00:42;;;;;;;;;;;14.70;29.70;;;;;;6133953;23;20281;-81
2022/04/10 10:03:10;;;;;;;;;;;14.80;28.00;;;;;;6130626;23;19950;-79
2022/04/10 10:05:37;;;;;;;;;;;15.00;28.40;;;;;;6155908;23;19920;-80
2022/04/10 10:08:04;;;;;;;;;;;14.80;29.20;;;;;;6129938;23;19924;-80
2022/04/10 10:10:32;;;;;;;;;;;15.10;28.30;;;;;;6130809;23;19924;-79
2022/04/10 10:13:00;;;;;;;;;;;15.40;26.60;;;;;;6133643;23;19948;-79
2022/04/10 10:15:37;;;;;;;;;;;15.30;26.60;;;;;;6132421;23;19956;-81
2022/04/10 10:18:05;;;;;;;;;;;15.40;27.40;;;;;;6127598;23;19947;-79
2022/04/10 10:20:33;;;;;;;;;;;15.40;27.50;;;;;;6131892;23;19924;-79
2022/04/10 10:23:04;;;;;;;;;;;15.50;26.20;;;;;;6130106;23;19917;-80
2022/04/10 10:25:35;;;;;;;;;;;15.70;25.10;;;;;;6130966;23;19927;-81
2022/04/10 10:28:16;;;;;;;;;;;15.80;27.20;;;;;;6132171;23;19916;-81
2022/04/10 10:30:55;;;;;;;;;;;15.90;26.50;;;;;;6130482;23;19917;-81
2022/04/10 10:33:24;;;;;;;;;;;15.60;25.50;;;;;;6131900;23;20836;-81
2022/04/10 10:35:52;;;;;;;;;;;15.50;25.00;;;;;;6130871;23;19951;-79
2022/04/10 10:38:22;;;;;;;;;;;15.60;26.10;;;;;;6129750;23;19975;-81
2022/04/10 10:40:50;;;;;;;;;;;16.10;27.20;;;;;;6130822;23;19924;-81
2022/04/10 10:43:19;;;;;;;;;;;16.20;25.60;;;;;;6130238;23;19916;-81
2022/04/10 10:45:49;;;;;;;;;;;16.10;26.10;;;;;;6131929;23;19928;-81
2022/04/10 10:48:37;;;;;;;;;;;15.90;25.90;;;;;;6135523;23;20348;-79
2022/04/10 10:51:10;;;;;;;;;;;16.00;25.60;;;;;;6129289;23;19955;-81
2022/04/10 10:53:40;;;;;;;;;;;15.90;24.80;;;;;;6133104;23;19921;-81
2022/04/10 10:56:12;;;;;;;;;;;16.10;24.80;;;;;;6130434;23;19921;-79
2022/04/10 10:59:17;;;;;;;;;;;15.90;23.30;;;;;;6136567;23;20444;-82
2022/04/10 11:02:13;;;;;;;;;;;15.80;25.00;;;;;;6134551;23;19917;-81
2022/04/10 11:05:04;;;;;;;;;;;15.80;24.50;;;;;;6129909;23;19923;-79
2022/04/10 11:07:32;;;;;;;;;;;16.10;25.40;;;;;;6134528;23;19920;-82
2022/04/10 11:10:00;;;;;;;;;;;16.00;23.90;;;;;;6127868;23;19967;-82
2022/04/10 11:12:34;;;;;;;;;;;15.80;23.70;;;;;;6129511;23;20330;-82
2022/04/10 11:15:11;;;;;;;;;;;16.10;23.40;;;;;;6133342;23;19924;-82
2022/04/10 11:17:39;;;;;;;;;;;16.20;24.30;;;;;;6128762;23;19920;-82
2022/04/10 11:20:07;;;;;;;;;;;16.10;23.70;;;;;;6132331;23;19924;-83
2022/04/10 11:22:37;;;;;;;;;;;16.20;24.30;;;;;;6130205;23;19972;-79
2022/04/10 11:25:05;;;;;;;;;;;16.40;23.20;;;;;;6132528;23;19917;-82
2022/04/10 11:27:53;;;;;;;;;;;16.30;22.70;;;;;;6130505;23;19924;-80
2022/04/10 11:30:20;;;;;;;;;;;15.90;21.80;;;;;;6129634;23;19917;-82
2022/04/10 11:32:52;;;;;;;;;;;16.00;24.90;;;;;;6128865;23;19943;-82
2022/04/10 11:35:20;;;;;;;;;;;16.10;24.90;;;;;;6129421;23;19971;-82
2022/04/10 11:37:50;;;;;;;;;;;16.30;24.10;;;;;;6133358;23;19917;-80
2022/04/10 11:40:20;;;;;;;;;;;16.40;22.70;;;;;;6130996;23;19928;-83
2022/04/10 11:42:48;;;;;;;;;;;16.20;22.60;;;;;;6132220;23;19959;-82
2022/04/10 11:45:14;;;;;;;;;;;16.50;23.90;;;;;;6129219;23;19917;-82
2022/04/10 11:47:44;;;;;;;;;;;16.60;24.30;;;;;;6129149;23;19916;-82
2022/04/10 11:50:13;;;;;;;;;;;16.30;24.40;;;;;;6127904;23;20305;-82
2022/04/10 11:52:41;;;;;;;;;;;16.40;24.20;;;;;;6131438;23;20428;-79
2022/04/10 11:55:08;;;;;;;;;;;16.60;23.70;;;;;;6131500;23;20349;-82
2022/04/10 11:57:39;;;;;;;;;;;16.90;22.20;;;;;;6129718;23;19921;-82
2022/04/10 12:00:09;;;;;;;;;;;16.60;21.90;;;;;;6131116;23;19983;-82
2022/04/10 12:02:37;;;;;;;;;;;16.50;23.20;;;;;;6131507;23;19929;-79
2022/04/10 12:05:08;;;;;;;;;;;16.40;22.60;;;;;;6155184;23;19917;-80
2022/04/10 12:07:36;;;;;;;;;;;16.70;24.10;;;;;;6133373;23;19920;-80
2022/04/10 12:10:03;;;;;;;;;;;17.30;25.90;;;;;;6131454;23;19916;-79
2022/04/10 12:12:37;;;;;;;;;;;16.90;23.80;;;;;;6133075;23;19927;-80
2022/04/10 12:15:19;;;;;;;;;;;16.40;23.70;;;;;;6129916;23;19995;-79
2022/04/10 12:17:46;;;;;;;;;;;17.00;27.30;;;;;;6130335;23;19920;-80
2022/04/10 12:20:38;;;;;;;;;;;17.00;24.10;;;;;;6136607;23;19917;-82
2022/04/10 12:23:19;;;;;;;;;;;17.10;24.00;;;;;;6131154;23;19924;-82
2022/04/10 12:25:49;;;;;;;;;;;17.50;23.40;;;;;;6130147;23;20459;-82
2022/04/10 12:28:19;;;;;;;;;;;17.60;23.30;;;;;;6131936;23;20122;-80
2022/04/10 12:30:47;;;;;;;;;;;17.60;23.10;;;;;;6128370;23;19991;-79
2022/04/10 12:33:15;;;;;;;;;;;17.40;22.20;;;;;;6137594;23;19916;-82
2022/04/10 12:35:45;;;;;;;;;;;17.40;22.70;;;;;;6130186;23;19952;-82
2022/04/10 12:38:12;;;;;;;;;;;17.70;23.50;;;;;;6129917;23;19920;-79
2022/04/10 12:40:41;;;;;;;;;;;17.60;23.60;;;;;;6130214;23;20407;-82
2022/04/10 12:43:14;;;;;;;;;;;17.70;23.50;;;;;;6131832;23;19991;-82
2022/04/10 12:45:42;;;;;;;;;;;17.80;22.60;;;;;;6134166;23;20301;-82
2022/04/10 12:48:22;;;;;;;;;;;17.90;23.60;;;;;;6131626;23;20353;-82
2022/04/10 12:51:07;;;;;;;;;;;18.00;24.30;;;;;;6130548;23;19983;-80
2022/04/10 12:53:34;;;;;;;;;;;17.90;25.00;;;;;;6133215;23;19917;-80
2022/04/10 12:56:01;;;;;;;;;;;17.20;23.60;;;;;;6135160;23;19971;-80
2022/04/10 12:58:29;;;;;;;;;;;17.10;24.60;;;;;;6130742;23;19962;-79
2022/04/10 13:00:56;;;;;;;;;;;17.50;24.60;;;;;;6133064;23;20342;-82
2022/04/10 13:03:25;;;;;;;;;;;17.70;23.40;;;;;;6129745;23;20227;-79
2022/04/10 13:06:02;;;;;;;;;;;18.10;24.00;;;;;;6131163;23;20427;-82
2022/04/10 13:08:36;;;;;;;;;;;18.20;23.30;;;;;;6131249;23;19916;-82
2022/04/10 13:11:05;;;;;;;;;;;18.10;23.60;;;;;;6129068;23;19996;-82
2022/04/10 13:14:00;;;;;;;;;;;18.40;23.90;;;;;;6132290;23;19923;-82
2022/04/10 13:16:31;;;;;;;;;;;18.30;23.50;;;;;;6131078;23;20389;-82
2022/04/10 13:19:05;;;;;;;;;;;18.20;24.00;;;;;;6137968;23;19917;-80
2022/04/10 13:21:38;;;;;;;;;;;18.30;25.70;;;;;;6132087;23;19936;-82
2022/04/10 13:24:06;;;;;;;;;;;18.70;25.30;;;;;;6157426;23;19916;-82
2022/04/10 13:26:34;;;;;;;;;;;18.70;24.50;;;;;;6134308;23;20245;-82
2022/04/10 13:29:19;;;;;;;;;;;18.90;24.50;;;;;;6131391;23;19945;-80
2022/04/10 13:31:46;;;;;;;;;;;18.80;24.00;;;;;;6130446;23;20257;-82
2022/04/10 13:34:13;;;;;;;;;;;18.70;24.10;;;;;;6128235;23;19916;-82
2022/04/10 13:36:42;;;;;;;;;;;18.20;24.40;;;;;;6128224;23;19931;-81
2022/04/10 13:39:08;;;;;;;;;;;17.70;25.20;;;;;;6131471;23;19987;-81
2022/04/10 13:41:35;;;;;;;;;;;17.90;24.70;;;;;;6130673;23;19927;-79
2022/04/10 13:44:04;;;;;;;;;;;18.30;24.20;;;;;;6160951;23;19957;-80
2022/04/10 13:46:31;;;;;;;;;;;18.40;24.60;;;;;;6136360;23;19951;-82
2022/04/10 13:48:57;;;;;;;;;;;18.60;24.30;;;;;;6155787;23;20223;-80
2022/04/10 13:51:24;;;;;;;;;;;18.70;24.30;;;;;;6133200;23;19916;-79
2022/04/10 13:53:52;;;;;;;;;;;18.80;23.20;;;;;;6156423;23;19992;-80
2022/04/10 13:56:18;;;;;;;;;;;18.80;23.50;;;;;;6131070;23;19920;-79
2022/04/10 13:58:45;;;;;;;;;;;19.00;22.70;;;;;;6129888;23;20305;-81
2022/04/10 14:01:12;;;;;;;;;;;18.50;22.50;;;;;;6129553;23;19967;-79
2022/04/10 14:03:39;;;;;;;;;;;18.60;23.20;;;;;;6129170;23;19944;-82
2022/04/10 14:06:06;;;;;;;;;;;18.90;22.50;;;;;;6128766;23;19924;-81
2022/04/10 14:08:33;;;;;;;;;;;18.50;22.70;;;;;;6127087;23;19917;-81
2022/04/10 14:11:19;;;;;;;;;;;18.90;23.80;;;;;;6134015;23;19916;-82
2022/04/10 14:13:46;;;;;;;;;;;19.20;23.20;;;;;;6130298;23;20337;-82
2022/04/10 14:16:12;;;;;;;;;;;19.70;23.10;;;;;;6129366;23;19923;-79
2022/04/10 14:18:40;;;;;;;;;;;18.60;22.70;;;;;;6128038;23;20337;-79
2022/04/10 14:21:09;;;;;;;;;;;18.60;24.50;;;;;;6131377;23;19920;-79
2022/04/10 14:23:36;;;;;;;;;;;18.70;24.10;;;;;;6153513;23;19987;-80
2022/04/10 14:26:05;;;;;;;;;;;18.80;24.50;;;;;;6129993;23;19948;-79
2022/04/10 14:28:33;;;;;;;;;;;19.30;25.00;;;;;;6133272;23;19916;-79
2022/04/10 14:30:59;;;;;;;;;;;18.40;22.80;;;;;;6128948;23;19917;-80
2022/04/10 14:33:28;;;;;;;;;;;18.40;22.30;;;;;;6130336;23;20345;-81
2022/04/10 14:35:55;;;;;;;;;;;18.70;24.30;;;;;;6128197;23;19916;-82